Time;durP1;ratioP1;P1;durP2;ratioP2;P2;SDS_P1;SDS_P2;PMS_P1;PMS_P2;Temp;Humidity;BMP_temperature;BMP_pressure;BME280_temperature;BME280_humidity;BME280_pressure;Samples;Min_cycle;Max_cycle;Signal;HPM_P1;HPM_P2
2023/06/03 00:07:10;;;;;;;;;;;;;;;12.97;100.00;97566.19;18565423;32;20012;-53
2023/06/03 00:17:12;;;;;;;;;;;;;;;12.80;100.00;97561.22;18550039;32;19944;-52
2023/06/03 00:27:15;;;;;;;;;;;;;;;12.65;100.00;97577.66;18564327;32;19976;-50
2023/06/03 00:37:17;;;;;;;;;;;;;;;12.49;100.00;97566.12;18563138;32;19959;-52
2023/06/03 00:47:20;;;;;;;;;;;;;;;12.35;100.00;97574.09;18562935;32;20268;-53
2023/06/03 00:57:23;;;;;;;;;;;;;;;12.20;100.00;97569.63;18562370;32;19992;-51
2023/06/03 01:07:28;;;;;;;;;;;;;;;12.02;100.00;97565.69;18562390;32;19991;-50
2023/06/03 01:17:35;;;;;;;;;;;;;;;11.86;100.00;97562.22;18561489;32;19952;-52
2023/06/03 01:27:38;;;;;;;;;;;;;;;11.71;100.00;97557.72;18560706;32;19971;-50
2023/06/03 01:37:41;;;;;;;;;;;;;;;11.47;100.00;97552.97;18546218;32;19949;-51
2023/06/03 01:47:43;;;;;;;;;;;;;;;11.33;100.00;97551.94;18560463;32;19989;-53
2023/06/03 01:57:47;;;;;;;;;;;;;;;11.22;100.00;97555.78;18560463;32;19956;-53
2023/06/03 02:07:49;;;;;;;;;;;;;;;11.06;100.00;97561.28;18559917;32;19968;-53
2023/06/03 02:17:51;;;;;;;;;;;;;;;10.91;100.00;97562.13;18559604;32;19948;-53
2023/06/03 02:27:54;;;;;;;;;;;;;;;10.78;100.00;97560.78;18559339;32;20269;-52
2023/06/03 02:37:57;;;;;;;;;;;;;;;10.62;100.00;97551.06;18562258;32;19952;-53
2023/06/03 02:47:59;;;;;;;;;;;;;;;10.49;100.00;97560.56;18570230;32;19991;-53
2023/06/03 02:58:02;;;;;;;;;;;;;;;10.34;100.00;97556.78;18555957;32;19971;-52
2023/06/03 03:08:04;;;;;;;;;;;;;;;10.24;100.00;97566.78;18569220;32;20034;-52
2023/06/03 03:18:06;;;;;;;;;;;;;;;10.13;100.00;97569.47;18568379;31;19960;-56
2023/06/03 03:28:09;;;;;;;;;;;;;;;10.05;100.00;97561.91;18567839;32;20337;-56
2023/06/03 03:38:11;;;;;;;;;;;;;;;9.93;100.00;97566.75;18567118;32;20285;-54
2023/06/03 03:48:14;;;;;;;;;;;;;;;9.87;100.00;97562.41;18567015;32;19994;-56
2023/06/03 03:58:26;;;;;;;;;;;;;;;9.80;100.00;97566.19;18566281;32;19952;-54
2023/06/03 04:08:45;;;;;;;;;;;;;;;9.72;100.00;97561.31;18565756;32;19968;-55
2023/06/03 04:18:48;;;;;;;;;;;;;;;9.79;100.00;97561.84;18564694;32;20275;-55
2023/06/03 04:28:50;;;;;;;;;;;;;;;9.90;100.00;97565.38;18550078;32;19953;-55
2023/06/03 04:38:52;;;;;;;;;;;;;;;10.05;100.00;97564.59;18549043;32;19952;-54
2023/06/03 04:48:55;;;;;;;;;;;;;;;10.31;100.00;97572.72;18563079;32;19988;-51
2023/06/03 04:59:00;;;;;;;;;;;;;;;10.56;100.00;97573.81;18548093;32;19972;-54
2023/06/03 05:09:02;;;;;;;;;;;;;;;10.84;100.00;97575.94;18547547;31;20008;-54
2023/06/03 05:19:05;;;;;;;;;;;;;;;11.17;100.00;97581.00;18561437;32;19961;-56
2023/06/03 05:29:07;;;;;;;;;;;;;;;11.51;100.00;97583.00;18560982;32;19960;-55
2023/06/03 05:39:11;;;;;;;;;;;;;;;11.91;100.00;97585.75;18560742;32;19995;-55
2023/06/03 05:49:13;;;;;;;;;;;;;;;12.30;100.00;97588.50;18560783;32;20269;-56
2023/06/03 05:59:16;;;;;;;;;;;;;;;12.80;100.00;97601.09;18545700;31;19949;-55
2023/06/03 06:09:18;;;;;;;;;;;;;;;13.22;100.00;97605.00;18560065;32;20013;-56
2023/06/03 06:19:22;;;;;;;;;;;;;;;13.67;100.00;97599.34;18571337;32;20238;-55
2023/06/03 06:29:26;;;;;;;;;;;;;;;14.22;100.00;97605.09;18571738;32;20008;-57
2023/06/03 06:39:31;;;;;;;;;;;;;;;14.80;100.00;97608.53;18570979;32;20282;-53
2023/06/03 06:49:35;;;;;;;;;;;;;;;15.34;100.00;97619.00;18556104;32;19983;-56
2023/06/03 06:59:38;;;;;;;;;;;;;;;15.95;100.00;97618.84;18555364;32;19948;-55
2023/06/03 07:09:41;;;;;;;;;;;;;;;16.30;100.00;97627.34;18555175;32;19991;-57
2023/06/03 07:19:44;;;;;;;;;;;;;;;16.69;100.00;97623.13;18568480;32;19990;-55
2023/06/03 07:29:46;;;;;;;;;;;;;;;17.10;100.00;97630.31;18567560;32;20342;-56
2023/06/03 07:39:49;;;;;;;;;;;;;;;17.51;100.00;97634.66;18553254;32;19964;-57
2023/06/03 07:49:52;;;;;;;;;;;;;;;17.87;94.95;97636.38;18566642;31;20367;-57
2023/06/03 07:59:56;;;;;;;;;;;;;;;18.23;87.59;97643.53;18566301;32;19999;-57
2023/06/03 08:09:58;;;;;;;;;;;;;;;18.49;81.77;97645.47;18565334;32;19979;-57
2023/06/03 08:20:08;;;;;;;;;;;;;;;18.78;81.41;97635.78;18565057;32;19963;-55
2023/06/03 08:30:15;;;;;;;;;;;;;;;19.07;76.94;97639.78;18564409;32;19957;-55
2023/06/03 08:40:17;;;;;;;;;;;;;;;19.48;77.54;97641.88;18549216;32;19967;-54
2023/06/03 08:50:21;;;;;;;;;;;;;;;19.95;76.13;97640.22;18562915;32;19987;-53
2023/06/03 09:00:26;;;;;;;;;;;;;;;20.37;74.57;97642.19;18562364;32;19965;-55
2023/06/03 09:10:30;;;;;;;;;;;;;;;20.75;72.11;97635.75;18562282;32;20377;-55
2023/06/03 09:20:37;;;;;;;;;;;;;;;21.16;71.13;97640.31;18561903;32;19953;-55
2023/06/03 09:30:40;;;;;;;;;;;;;;;21.63;70.65;97633.63;18561496;32;20019;-55
2023/06/03 09:40:43;;;;;;;;;;;;;;;21.83;67.05;97650.41;18546194;32;19999;-55
2023/06/03 09:50:49;;;;;;;;;;;;;;;21.98;62.14;97646.94;18569524;32;19964;-55
2023/06/03 10:00:52;;;;;;;;;;;;;;;22.09;62.36;97647.25;18573738;32;19952;-55
2023/06/03 10:10:56;;;;;;;;;;;;;;;22.56;58.72;97654.16;18572486;32;20332;-55
2023/06/03 10:21:00;;;;;;;;;;;;;;;23.00;64.52;97653.41;18558337;32;20000;-54
2023/06/03 10:31:04;;;;;;;;;;;;;;;23.12;52.16;97647.03;18556983;31;19971;-54
2023/06/03 10:41:09;;;;;;;;;;;;;;;23.18;54.46;97638.16;18571172;32;19998;-55
2023/06/03 10:51:30;;;;;;;;;;;;;;;23.48;53.37;97626.69;18555773;32;19952;-55
2023/06/03 11:01:54;;;;;;;;;;;;;;;24.07;56.26;97626.91;18554982;32;19984;-54
2023/06/03 11:12:03;;;;;;;;;;;;;;;24.61;50.78;97636.38;18569135;32;19965;-55
2023/06/03 11:22:10;;;;;;;;;;;;;;;24.68;50.07;97630.97;18554523;32;19968;-54
2023/06/03 11:32:23;;;;;;;;;;;;;;;25.15;46.59;97628.28;18567635;31;19979;-55
2023/06/03 11:42:27;;;;;;;;;;;;;;;25.36;48.73;97623.13;18567400;32;20004;-54
2023/06/03 11:52:42;;;;;;;;;;;;;;;25.65;48.19;97614.50;18552701;32;19957;-55
2023/06/03 12:02:46;;;;;;;;;;;;;;;26.17;48.06;97601.03;18566213;32;20306;-55
2023/06/03 12:12:54;;;;;;;;;;;;;;;26.49;48.61;97597.88;18565066;32;19971;-55
2023/06/03 12:23:04;;;;;;;;;;;;;;;27.11;52.34;97593.81;18564676;32;19971;-54
2023/06/03 12:33:07;;;;;;;;;;;;;;;27.30;46.70;97576.13;18536917;31;19983;-55
2023/06/03 12:43:22;;;;;;;;;;;;;;;27.84;47.66;97576.56;18563447;32;20034;-56
2023/06/03 12:53:28;;;;;;;;;;;;;;;28.32;43.75;97564.53;18563081;32;19987;-55
2023/06/03 13:03:31;;;;;;;;;;;;;;;28.87;40.39;97563.50;18562382;32;19975;-55
2023/06/03 13:13:35;;;;;;;;;;;;;;;29.26;42.13;97551.66;18561838;31;19993;-56
2023/06/03 13:23:38;;;;;;;;;;;;;;;29.46;39.17;97543.69;18547035;32;19961;-56
2023/06/03 13:33:42;;;;;;;;;;;;;;;30.11;39.88;97545.56;18546605;32;20368;-55
2023/06/03 13:43:50;;;;;;;;;;;;;;;30.50;41.13;97547.41;18561154;32;20004;-55
2023/06/03 13:53:53;;;;;;;;;;;;;;;31.13;38.67;97541.06;18560625;32;19960;-55
2023/06/03 14:03:57;;;;;;;;;;;;;;;31.51;41.57;97533.53;18560169;32;20011;-56
2023/06/03 14:14:00;;;;;;;;;;;;;;;31.85;36.13;97516.06;18560005;32;19956;-56
2023/06/03 14:24:03;;;;;;;;;;;;;;;31.65;34.60;97504.69;18559747;32;19993;-56
2023/06/03 14:34:06;;;;;;;;;;;;;;;31.97;33.52;97492.34;18548548;31;20007;-56
2023/06/03 14:44:09;;;;;;;;;;;;;;;32.40;33.05;97477.84;18571050;32;19969;-55
2023/06/03 14:54:11;;;;;;;;;;;;;;;32.35;35.88;97492.28;18570179;32;19999;-56
2023/06/03 15:04:15;;;;;;;;;;;;;;;30.96;36.81;97487.72;18569476;32;19977;-56
2023/06/03 15:14:18;;;;;;;;;;;;;;;29.65;36.24;97469.22;18569184;32;19960;-56
2023/06/03 15:24:22;;;;;;;;;;;;;;;28.86;38.30;97461.75;18541363;32;19953;-56
2023/06/03 15:34:25;;;;;;;;;;;;;;;28.07;39.35;97454.03;18567665;31;19957;-55
2023/06/03 15:44:28;;;;;;;;;;;;;;;27.62;40.31;97456.19;18566969;32;19996;-55
2023/06/03 15:54:31;;;;;;;;;;;;;;;27.27;39.94;97457.53;18552362;31;19967;-55
2023/06/03 16:04:37;;;;;;;;;;;;;;;26.91;42.04;97460.84;18552070;32;20281;-53
2023/06/03 16:14:41;;;;;;;;;;;;;;;26.66;42.00;97450.31;18551037;32;19967;-55
2023/06/03 16:24:45;;;;;;;;;;;;;;;26.29;43.36;97437.28;18564846;32;20008;-56
2023/06/03 16:34:48;;;;;;;;;;;;;;;26.35;44.71;97434.97;18563820;31;19957;-54
2023/06/03 16:44:51;;;;;;;;;;;;;;;26.60;44.35;97440.75;18563405;32;19960;-56
2023/06/03 16:54:53;;;;;;;;;;;;;;;26.61;45.17;97444.31;18548299;32;19941;-55
2023/06/03 17:04:56;;;;;;;;;;;;;;;26.17;45.93;97445.88;18562575;32;20316;-51
2023/06/03 17:15:00;;;;;;;;;;;;;;;25.68;45.83;97442.91;18547976;32;20265;-55
2023/06/03 17:25:04;;;;;;;;;;;;;;;25.48;47.83;97455.28;18561733;32;19956;-55
2023/06/03 17:35:07;;;;;;;;;;;;;;;25.53;45.70;97460.47;18547118;32;19975;-55
2023/06/03 17:45:11;;;;;;;;;;;;;;;25.06;48.32;97451.47;18560749;32;19990;-55
2023/06/03 17:55:14;;;;;;;;;;;;;;;24.80;49.09;97450.28;18546135;32;19987;-55
2023/06/03 18:05:18;;;;;;;;;;;;;;;26.09;45.95;97455.28;18560272;32;20359;-55
2023/06/03 18:15:21;;;;;;;;;;;;;;;29.96;37.05;97475.94;18559013;32;20297;-55
2023/06/03 18:25:25;;;;;;;;;;;;;;;26.79;41.89;97452.81;18557907;32;20041;-54
2023/06/03 18:35:28;;;;;;;;;;;;;;;24.88;47.53;97456.72;18557219;31;19959;-54
2023/06/03 18:45:32;;;;;;;;;;;;;;;24.08;49.05;97461.97;18555768;32;19948;-54
2023/06/03 18:55:35;;;;;;;;;;;;;;;23.26;52.16;97459.84;18555994;32;19984;-55
2023/06/03 19:05:38;;;;;;;;;;;;;;;22.63;56.95;97464.22;18555708;32;19968;-53
2023/06/03 19:15:41;;;;;;;;;;;;;;;21.80;68.06;97467.50;18569438;32;19967;-55
2023/06/03 19:25:44;;;;;;;;;;;;;;;21.06;79.08;97475.81;18553676;32;19960;-54
2023/06/03 19:35:47;;;;;;;;;;;;;;;20.44;88.14;97489.44;18553162;31;19984;-55
2023/06/03 19:45:50;;;;;;;;;;;;;;;19.87;95.31;97503.88;18567383;32;19961;-52
2023/06/03 19:55:52;;;;;;;;;;;;;;;19.32;100.00;97511.97;18566816;32;20355;-53
2023/06/03 20:05:55;;;;;;;;;;;;;;;18.84;100.00;97530.38;18565953;32;19960;-55
2023/06/03 20:15:58;;;;;;;;;;;;;;;18.44;100.00;97538.84;18565261;32;20337;-54
2023/06/03 20:26:01;;;;;;;;;;;;;;;18.07;100.00;97552.09;18564882;32;19948;-53
2023/06/03 20:36:05;;;;;;;;;;;;;;;17.75;100.00;97562.34;18563160;32;20294;-54
2023/06/03 20:46:07;;;;;;;;;;;;;;;17.45;100.00;97576.59;18549453;32;19984;-54
2023/06/03 20:56:10;;;;;;;;;;;;;;;17.19;100.00;97567.53;18563409;32;19966;-53
2023/06/03 21:06:12;;;;;;;;;;;;;;;16.93;100.00;97571.72;18548502;32;19961;-53
2023/06/03 21:16:15;;;;;;;;;;;;;;;16.71;100.00;97574.50;18562070;32;19956;-51
2023/06/03 21:26:17;;;;;;;;;;;;;;;16.46;100.00;97574.03;18561517;32;19983;-52
2023/06/03 21:36:20;;;;;;;;;;;;;;;16.24;100.00;97580.28;18560876;32;19971;-51
2023/06/03 21:46:22;;;;;;;;;;;;;;;15.97;100.00;97567.56;18560690;32;19967;-52
2023/06/03 21:56:25;;;;;;;;;;;;;;;15.75;100.00;97569.09;18568137;32;20027;-51
2023/06/03 22:06:28;;;;;;;;;;;;;;;15.55;100.00;97573.88;18567676;32;19960;-53
2023/06/03 22:16:31;;;;;;;;;;;;;;;15.36;100.00;97574.00;18567599;32;20004;-53
2023/06/03 22:26:34;;;;;;;;;;;;;;;15.17;100.00;97576.81;18581298;32;19953;-53
2023/06/03 22:36:36;;;;;;;;;;;;;;;15.00;100.00;97577.41;18580704;31;19949;-51
2023/06/03 22:46:43;;;;;;;;;;;;;;;14.84;100.00;97571.44;18566814;32;20279;-52
2023/06/03 22:56:45;;;;;;;;;;;;;;;14.69;100.00;97579.88;18574333;32;20284;-53
2023/06/03 23:06:47;;;;;;;;;;;;;;;14.50;100.00;97577.16;18555521;32;19991;-54
2023/06/03 23:16:50;;;;;;;;;;;;;;;14.35;100.00;97581.75;18569056;31;19961;-53
2023/06/03 23:26:53;;;;;;;;;;;;;;;14.22;100.00;97582.50;18568481;32;20345;-52
2023/06/03 23:36:55;;;;;;;;;;;;;;;14.08;100.00;97587.88;18553823;32;19961;-54
2023/06/03 23:46:57;;;;;;;;;;;;;;;13.92;100.00;97579.16;18567564;32;20032;-54
2023/06/03 23:56:59;;;;;;;;;;;;;;;13.78;100.00;97592.66;18566767;32;19988;-54
